Schedule Details


Flight Number: CTN491
Departure: Heathrow (EGLL) at 11:50
Arrival: Krk Island (LDRI) at 15:05
Route: DET UL6 DVR UL9 KONAN UL607 ILB Y560 ARMIX

Weather Information
EGLL 162350Z AUTO 26010KT 9999 SCT017 BKN037 07/06 Q1008 NOSIG

Schedule Frequency

Route Map